createdAt,value
2018-09-12T00:00:49.931Z,20.00
2018-09-12T00:03:22.565Z,20.10
2018-09-12T00:05:54.996Z,20.10
2018-09-12T00:08:27.187Z,20.10
2018-09-12T00:10:59.904Z,20.20
2018-09-12T00:13:32.337Z,20.00
2018-09-12T00:16:04.686Z,19.80
2018-09-12T00:18:37.262Z,19.80
2018-09-12T00:21:09.853Z,19.80
2018-09-12T00:23:42.813Z,19.80
2018-09-12T00:26:14.769Z,19.80
2018-09-12T00:28:47.064Z,19.90
2018-09-12T00:31:19.503Z,19.90
2018-09-12T00:33:51.456Z,19.90
2018-09-12T00:36:23.998Z,19.60
2018-09-12T00:38:56.448Z,19.50
2018-09-12T00:41:28.798Z,19.00
2018-09-12T00:44:01.166Z,18.80
2018-09-12T00:46:33.518Z,18.40
2018-09-12T00:49:05.898Z,18.30
2018-09-12T00:51:38.327Z,18.00
2018-09-12T00:54:10.886Z,17.80
2018-09-12T00:56:43.229Z,17.70
2018-09-12T00:59:15.538Z,17.40
2018-09-12T01:01:50.217Z,17.30
2018-09-12T01:04:22.592Z,17.20
2018-09-12T01:06:55.187Z,17.10
2018-09-12T01:09:27.532Z,17.10
2018-09-12T01:11:59.728Z,17.10
2018-09-12T01:14:33.972Z,16.70
2018-09-12T01:17:06.354Z,16.50
2018-09-12T01:19:38.657Z,16.40
2018-09-12T01:22:11.020Z,16.40
2018-09-12T01:24:44.121Z,16.30
2018-09-12T01:27:16.798Z,16.30
2018-09-12T01:29:49.163Z,16.30
2018-09-12T01:32:21.346Z,16.30
2018-09-12T01:34:53.738Z,16.40
2018-09-12T01:37:26.867Z,16.40
2018-09-12T01:39:59.247Z,16.40
2018-09-12T01:42:32.032Z,16.30
2018-09-12T01:45:04.318Z,16.40
2018-09-12T01:47:36.641Z,16.30
2018-09-12T01:50:09.361Z,16.30
2018-09-12T01:52:42.141Z,16.20
2018-09-12T01:55:14.766Z,16.20
2018-09-12T01:57:47.017Z,16.20
2018-09-12T02:00:20.618Z,16.30
2018-09-12T02:02:53.283Z,16.00
2018-09-12T02:05:26.078Z,15.90
2018-09-12T02:07:59.082Z,15.70
2018-09-12T02:10:31.864Z,15.50
2018-09-12T02:13:04.125Z,15.40
2018-09-12T02:15:36.739Z,15.30
2018-09-12T02:18:09.389Z,15.30
2018-09-12T02:20:41.897Z,15.20
2018-09-12T02:23:14.609Z,15.10
2018-09-12T02:25:47.142Z,15.00
2018-09-12T02:28:19.500Z,15.00
2018-09-12T02:30:52.304Z,15.00
2018-09-12T02:33:25.418Z,14.80
2018-09-12T02:36:02.631Z,14.80
2018-09-12T02:38:35.131Z,14.70
2018-09-12T02:41:07.636Z,14.70
2018-09-12T02:43:40.543Z,14.70
2018-09-12T02:46:12.771Z,14.70
2018-09-12T02:48:45.157Z,14.60
2018-09-12T02:51:18.048Z,14.60
2018-09-12T02:53:50.355Z,14.60
2018-09-12T02:56:22.973Z,14.60
2018-09-12T02:58:55.432Z,14.60
2018-09-12T03:01:27.954Z,14.40
2018-09-12T03:04:00.506Z,14.40
2018-09-12T03:06:33.330Z,14.40
2018-09-12T03:09:05.845Z,14.40
2018-09-12T03:11:37.822Z,14.30
2018-09-12T03:14:10.175Z,14.10
2018-09-12T03:16:43.265Z,14.10
2018-09-12T03:19:16.080Z,14.10
2018-09-12T03:21:48.496Z,14.10
2018-09-12T03:24:20.885Z,14.00
2018-09-12T03:26:53.456Z,13.90
2018-09-12T03:29:25.806Z,13.90
2018-09-12T03:31:58.491Z,13.80
2018-09-12T03:34:30.602Z,13.90
2018-09-12T03:37:02.854Z,13.80
2018-09-12T03:39:35.773Z,13.80
2018-09-12T03:42:07.747Z,13.90
2018-09-12T03:44:40.370Z,13.80
2018-09-12T03:47:12.905Z,13.70
2018-09-12T03:49:44.799Z,13.80
2018-09-12T03:52:16.689Z,13.80
2018-09-12T03:54:48.642Z,13.80
2018-09-12T03:57:20.545Z,13.80
2018-09-12T03:59:52.524Z,13.80
2018-09-12T04:02:24.466Z,13.80
2018-09-12T04:04:56.862Z,13.80
2018-09-12T04:07:29.639Z,13.80
2018-09-12T04:10:02.410Z,13.80
2018-09-12T04:12:35.602Z,13.80
2018-09-12T04:15:08.407Z,13.80
2018-09-12T04:17:40.930Z,13.90
2018-09-12T04:20:13.571Z,13.90
2018-09-12T04:22:45.482Z,13.90
2018-09-12T04:25:18.632Z,13.90
2018-09-12T04:27:51.441Z,13.90
2018-09-12T04:30:23.638Z,13.90
2018-09-12T04:32:56.220Z,13.90
2018-09-12T04:35:28.658Z,14.00
2018-09-12T04:38:01.042Z,14.00
2018-09-12T04:40:33.968Z,14.00
2018-09-12T04:43:07.093Z,14.00
2018-09-12T04:45:39.860Z,14.00
2018-09-12T04:48:12.041Z,14.00
2018-09-12T04:50:44.021Z,14.00
2018-09-12T04:53:16.644Z,14.10
2018-09-12T04:55:48.896Z,14.10
2018-09-12T04:58:21.426Z,14.10
2018-09-12T05:00:54.155Z,14.10
2018-09-12T05:03:27.266Z,14.10
2018-09-12T05:05:59.190Z,14.00
2018-09-12T05:08:31.095Z,14.00
2018-09-12T05:11:03.143Z,14.00
2018-09-12T05:13:35.099Z,14.00
2018-09-12T05:16:07.912Z,14.00
2018-09-12T05:18:40.684Z,14.10
2018-09-12T05:21:13.252Z,14.10
2018-09-12T05:23:45.658Z,14.00
2018-09-12T05:26:18.023Z,14.00
2018-09-12T05:28:50.726Z,14.00
2018-09-12T05:31:23.664Z,14.10
2018-09-12T05:33:55.994Z,14.00
2018-09-12T05:36:28.286Z,13.90
2018-09-12T05:39:01.529Z,13.80
2018-09-12T05:41:34.108Z,13.70
2018-09-12T05:44:06.890Z,13.70
2018-09-12T05:46:39.476Z,13.60
2018-09-12T05:49:12.061Z,13.60
2018-09-12T05:51:44.203Z,13.60
2018-09-12T05:54:16.820Z,13.60
2018-09-12T05:56:49.183Z,13.60
2018-09-12T05:59:21.806Z,13.50
2018-09-12T06:01:54.452Z,13.50
2018-09-12T06:04:26.641Z,13.40
2018-09-12T06:06:59.041Z,13.40
2018-09-12T06:09:31.329Z,13.30
2018-09-12T06:12:04.017Z,13.40
2018-09-12T06:14:36.533Z,13.30
2018-09-12T06:17:09.295Z,13.20
2018-09-12T06:19:41.667Z,13.10
2018-09-12T06:22:14.160Z,13.00
2018-09-12T06:24:46.517Z,13.00
2018-09-12T06:27:19.215Z,12.90
2018-09-12T06:29:51.767Z,12.90
2018-09-12T06:32:24.234Z,12.80
2018-09-12T06:34:56.859Z,12.70
2018-09-12T06:37:29.627Z,12.70
2018-09-12T06:40:02.134Z,12.70
2018-09-12T06:42:34.308Z,12.60
2018-09-12T06:45:06.898Z,12.60
2018-09-12T06:47:39.188Z,12.50
2018-09-12T06:50:12.148Z,12.50
2018-09-12T06:52:44.392Z,12.50
2018-09-12T06:55:17.403Z,12.40
2018-09-12T06:57:50.069Z,12.40
2018-09-12T07:00:22.863Z,12.40
2018-09-12T07:02:55.519Z,12.40
2018-09-12T07:05:28.212Z,12.40
2018-09-12T07:08:00.707Z,12.30
2018-09-12T07:10:33.102Z,12.20
2018-09-12T07:13:05.218Z,12.20
2018-09-12T07:15:37.826Z,12.20
2018-09-12T07:18:09.975Z,12.20
2018-09-12T07:20:42.555Z,12.20
2018-09-12T07:23:14.916Z,12.20
2018-09-12T07:25:47.255Z,12.20
2018-09-12T07:28:19.877Z,12.10
2018-09-12T07:30:53.003Z,12.10
2018-09-12T07:33:25.258Z,12.10
2018-09-12T07:35:57.955Z,12.10
2018-09-12T07:38:30.571Z,12.10
2018-09-12T07:41:03.330Z,12.10
2018-09-12T07:43:35.930Z,12.10
2018-09-12T07:46:08.558Z,12.00
2018-09-12T07:48:40.777Z,12.00
2018-09-12T07:51:13.693Z,12.00
2018-09-12T07:53:46.502Z,12.00
2018-09-12T07:56:19.018Z,12.00
2018-09-12T07:58:51.845Z,12.00
2018-09-12T08:01:24.407Z,12.00
2018-09-12T08:03:57.278Z,12.00
2018-09-12T08:06:29.939Z,12.00
2018-09-12T08:09:02.453Z,12.00
2018-09-12T08:11:35.044Z,12.00
2018-09-12T08:14:07.487Z,12.00
2018-09-12T08:16:39.716Z,12.00
2018-09-12T08:19:12.237Z,12.00
2018-09-12T08:21:44.586Z,12.00
2018-09-12T08:24:17.106Z,12.00
2018-09-12T08:26:49.821Z,12.00
2018-09-12T08:29:22.289Z,12.00
2018-09-12T08:31:54.733Z,12.00
2018-09-12T08:34:27.097Z,12.00
2018-09-12T08:36:59.380Z,12.10
2018-09-12T08:39:31.810Z,12.10
2018-09-12T08:42:04.559Z,12.10
2018-09-12T08:44:37.166Z,12.10
2018-09-12T08:47:09.891Z,12.20
2018-09-12T08:49:42.661Z,12.20
2018-09-12T08:52:15.069Z,12.20
2018-09-12T08:54:48.553Z,12.30
2018-09-12T08:57:20.961Z,12.30
2018-09-12T08:59:53.620Z,12.30
2018-09-12T09:02:26.622Z,12.30
2018-09-12T09:04:59.169Z,12.30
2018-09-12T09:07:31.543Z,12.30
2018-09-12T09:10:04.322Z,12.30
2018-09-12T09:12:36.609Z,12.40
2018-09-12T09:15:10.481Z,12.40
2018-09-12T09:17:42.760Z,12.40
2018-09-12T09:20:15.241Z,12.50
2018-09-12T09:22:48.233Z,12.50
2018-09-12T09:25:20.660Z,12.50
2018-09-12T09:27:52.836Z,12.60
2018-09-12T09:30:27.811Z,12.60
2018-09-12T09:33:00.698Z,12.60
2018-09-12T09:35:33.279Z,12.60
2018-09-12T09:38:05.748Z,12.70
2018-09-12T09:40:38.493Z,12.60
2018-09-12T09:43:11.207Z,12.60
2018-09-12T09:45:44.050Z,12.70
2018-09-12T09:48:16.376Z,12.70
2018-09-12T09:50:48.788Z,12.60
2018-09-12T09:53:21.162Z,12.70
2018-09-12T09:55:53.492Z,12.70
2018-09-12T09:58:26.083Z,12.70
2018-09-12T10:01:02.960Z,12.70
2018-09-12T10:03:39.874Z,12.70
2018-09-12T10:06:16.526Z,12.70
2018-09-12T10:08:53.253Z,12.70
2018-09-12T10:11:25.477Z,12.70
2018-09-12T10:13:57.696Z,12.70
2018-09-12T10:16:29.800Z,12.70
2018-09-12T10:19:01.973Z,12.70
2018-09-12T10:21:34.180Z,12.80
2018-09-12T10:24:06.527Z,12.80
2018-09-12T10:26:38.788Z,12.80
2018-09-12T10:29:11.341Z,12.80
2018-09-12T10:31:43.896Z,12.80
2018-09-12T10:34:16.298Z,12.80
2018-09-12T10:36:48.862Z,12.80
2018-09-12T10:39:21.240Z,12.80
2018-09-12T10:41:53.906Z,12.80
2018-09-12T10:44:26.365Z,12.80
2018-09-12T10:46:58.982Z,12.90
2018-09-12T10:49:31.371Z,12.90
2018-09-12T10:52:04.071Z,12.90
2018-09-12T10:54:36.276Z,12.90
2018-09-12T10:57:08.329Z,13.00
2018-09-12T10:59:40.709Z,13.00
2018-09-12T11:02:13.025Z,13.00
2018-09-12T11:04:45.935Z,13.00
2018-09-12T11:07:18.523Z,13.00
2018-09-12T11:09:50.989Z,13.00
2018-09-12T11:12:24.375Z,13.00
2018-09-12T11:14:56.846Z,13.10
2018-09-12T11:17:29.076Z,13.10
2018-09-12T11:20:01.436Z,13.10
2018-09-12T11:22:34.095Z,13.10
2018-09-12T11:25:06.181Z,13.10
2018-09-12T11:27:38.533Z,13.00
2018-09-12T11:30:10.959Z,13.00
2018-09-12T11:32:43.306Z,13.10
2018-09-12T11:35:15.846Z,13.10
2018-09-12T11:37:47.947Z,13.10
2018-09-12T11:40:19.846Z,13.10
2018-09-12T11:42:52.294Z,13.10
2018-09-12T11:45:24.614Z,13.10
2018-09-12T11:47:57.045Z,13.10
2018-09-12T11:50:29.809Z,13.10
2018-09-12T11:53:02.355Z,13.10
2018-09-12T11:55:34.805Z,13.10
2018-09-12T11:58:06.905Z,13.10
2018-09-12T12:00:39.426Z,13.10
2018-09-12T12:03:11.911Z,13.00
2018-09-12T12:05:44.180Z,13.00
2018-09-12T12:08:16.766Z,13.00
2018-09-12T12:10:49.163Z,13.00
2018-09-12T12:13:21.547Z,13.00
2018-09-12T12:15:53.769Z,13.00
2018-09-12T12:18:25.987Z,13.00
2018-09-12T12:20:58.427Z,13.00
2018-09-12T12:23:30.524Z,12.90
2018-09-12T12:26:03.049Z,12.90
2018-09-12T12:28:35.466Z,12.80
2018-09-12T12:31:07.650Z,12.80
2018-09-12T12:33:40.186Z,12.70
2018-09-12T12:36:13.378Z,12.70
2018-09-12T12:38:45.794Z,12.70
2018-09-12T12:41:18.000Z,12.70
2018-09-12T12:43:50.595Z,12.70
2018-09-12T12:46:22.893Z,12.70
2018-09-12T12:48:55.673Z,12.70
2018-09-12T12:51:27.767Z,12.60
2018-09-12T12:54:00.051Z,12.60
2018-09-12T12:56:32.547Z,12.60
2018-09-12T12:59:05.018Z,12.60
2018-09-12T13:01:37.276Z,12.60
2018-09-12T13:04:10.613Z,12.60
2018-09-12T13:06:43.198Z,12.60
2018-09-12T13:09:15.325Z,12.60
2018-09-12T13:11:47.921Z,12.60
2018-09-12T13:14:20.286Z,12.70
2018-09-12T13:16:52.745Z,12.60
2018-09-12T13:19:25.412Z,12.60
2018-09-12T13:21:57.703Z,12.60
2018-09-12T13:24:30.078Z,12.60
2018-09-12T13:27:02.378Z,12.60
2018-09-12T13:29:34.986Z,12.60
2018-09-12T13:32:07.141Z,12.60
2018-09-12T13:34:39.550Z,12.50
2018-09-12T13:37:12.538Z,12.50
2018-09-12T13:39:44.724Z,12.50
2018-09-12T13:42:17.061Z,12.50
2018-09-12T13:44:49.252Z,12.50
2018-09-12T13:47:21.646Z,12.50
2018-09-12T13:49:53.700Z,12.50
2018-09-12T13:52:25.986Z,12.50
2018-09-12T13:54:58.145Z,12.40
2018-09-12T13:57:30.587Z,12.40
2018-09-12T14:00:03.029Z,12.40
2018-09-12T14:02:35.512Z,12.40
2018-09-12T14:05:08.735Z,12.40
2018-09-12T14:07:40.893Z,12.40
2018-09-12T14:10:12.956Z,12.40
2018-09-12T14:12:45.407Z,12.40
2018-09-12T14:15:17.821Z,12.40
2018-09-12T14:17:50.118Z,12.50
2018-09-12T14:20:23.081Z,12.50
2018-09-12T14:22:55.291Z,12.50
2018-09-12T14:25:27.709Z,12.50
2018-09-12T14:28:00.233Z,12.60
2018-09-12T14:30:32.914Z,12.60
2018-09-12T14:33:05.141Z,12.70
2018-09-12T14:35:37.696Z,12.70
2018-09-12T14:38:10.692Z,12.80
2018-09-12T14:40:43.180Z,12.80
2018-09-12T14:43:14.948Z,12.90
2018-09-12T14:45:47.470Z,12.90
2018-09-12T14:48:19.920Z,12.90
2018-09-12T14:50:52.666Z,13.00
2018-09-12T14:53:25.094Z,13.00
2018-09-12T14:55:57.161Z,13.10
2018-09-12T14:58:29.609Z,13.10
2018-09-12T15:01:01.928Z,13.20
2018-09-12T15:03:34.770Z,13.20
2018-09-12T15:06:07.143Z,13.30
2018-09-12T15:08:39.680Z,13.30
2018-09-12T15:11:11.886Z,13.30
2018-09-12T15:13:44.178Z,13.40
2018-09-12T15:16:16.912Z,13.40
2018-09-12T15:18:49.238Z,13.40
2018-09-12T15:21:21.593Z,13.50
2018-09-12T15:23:53.994Z,13.50
2018-09-12T15:26:26.638Z,13.60
2018-09-12T15:28:58.800Z,13.70
2018-09-12T15:31:31.193Z,13.80
2018-09-12T15:34:03.283Z,13.90
2018-09-12T15:36:35.681Z,13.90
2018-09-12T15:39:11.246Z,14.00
2018-09-12T15:41:43.567Z,14.00
2018-09-12T15:44:16.027Z,14.10
2018-09-12T15:46:48.506Z,14.10
2018-09-12T15:49:20.570Z,14.20
2018-09-12T15:51:53.169Z,14.20
2018-09-12T15:54:25.506Z,14.30
2018-09-12T15:56:57.724Z,14.30
2018-09-12T15:59:30.246Z,14.40
2018-09-12T16:02:03.236Z,14.50
2018-09-12T16:04:36.074Z,14.60
2018-09-12T16:07:08.624Z,14.70
2018-09-12T16:09:40.788Z,14.80
2018-09-12T16:12:13.392Z,14.80
2018-09-12T16:14:45.713Z,15.00
2018-09-12T16:17:18.010Z,15.30
2018-09-12T16:19:50.374Z,15.40
2018-09-12T16:22:22.937Z,15.50
2018-09-12T16:24:55.594Z,15.50
2018-09-12T16:27:28.108Z,15.40
2018-09-12T16:30:00.729Z,15.40
2018-09-12T16:32:33.105Z,15.40
2018-09-12T16:35:05.477Z,15.40
2018-09-12T16:37:38.008Z,15.30
2018-09-12T16:40:10.657Z,15.30
2018-09-12T16:42:43.088Z,15.30
2018-09-12T16:45:15.423Z,15.30
2018-09-12T16:47:47.741Z,15.40
2018-09-12T16:50:20.374Z,15.40
2018-09-12T16:52:52.660Z,15.70
2018-09-12T16:55:24.827Z,15.70
2018-09-12T16:57:57.246Z,15.80
2018-09-12T17:00:29.604Z,15.80
2018-09-12T17:03:01.923Z,15.80
2018-09-12T17:05:34.847Z,15.60
2018-09-12T17:08:07.183Z,15.70
2018-09-12T17:10:39.408Z,15.80
2018-09-12T17:13:11.544Z,15.80
2018-09-12T17:15:44.008Z,15.90
2018-09-12T17:18:16.884Z,16.20
2018-09-12T17:20:49.098Z,16.40
2018-09-12T17:23:21.514Z,16.80
2018-09-12T17:25:54.110Z,16.90
2018-09-12T17:28:26.917Z,17.20
2018-09-12T17:31:00.247Z,17.50
2018-09-12T17:33:32.823Z,17.40
2018-09-12T17:36:05.181Z,17.50
2018-09-12T17:38:37.576Z,17.60
2018-09-12T17:41:10.028Z,17.60
2018-09-12T17:43:42.126Z,17.70
2018-09-12T17:46:14.450Z,17.80
2018-09-12T17:48:46.828Z,17.90
2018-09-12T17:51:19.135Z,17.90
2018-09-12T17:53:51.678Z,17.80
2018-09-12T17:56:24.188Z,17.60
2018-09-12T17:58:56.809Z,17.50
2018-09-12T18:01:29.339Z,17.40
2018-09-12T18:04:01.821Z,17.50
2018-09-12T18:06:34.113Z,17.50
2018-09-12T18:09:08.948Z,17.60
2018-09-12T18:11:41.304Z,17.70
2018-09-12T18:14:13.806Z,17.90
2018-09-12T18:16:46.299Z,18.10
2018-09-12T18:19:18.825Z,18.20
2018-09-12T18:21:51.498Z,18.30
2018-09-12T18:24:23.842Z,18.40
2018-09-12T18:26:56.054Z,18.70
2018-09-12T18:29:28.373Z,19.00
2018-09-12T18:32:00.972Z,19.10
2018-09-12T18:34:33.565Z,19.20
2018-09-12T18:37:05.977Z,19.10
2018-09-12T18:39:38.081Z,19.20
2018-09-12T18:42:10.833Z,19.20
2018-09-12T18:44:43.038Z,19.40
2018-09-12T18:47:15.754Z,19.50
2018-09-12T18:49:48.205Z,19.50
2018-09-12T18:52:20.861Z,19.40
2018-09-12T18:54:53.048Z,19.50
2018-09-12T18:57:25.593Z,19.60
2018-09-12T18:59:58.207Z,19.50
2018-09-12T19:02:30.621Z,19.30
2018-09-12T19:05:02.772Z,19.30
2018-09-12T19:07:35.081Z,19.20
2018-09-12T19:10:07.433Z,19.40
2018-09-12T19:12:39.811Z,19.20
2018-09-12T19:15:12.030Z,19.20
2018-09-12T19:17:44.383Z,18.80
2018-09-12T19:20:16.767Z,19.00
2018-09-12T19:22:49.075Z,19.00
2018-09-12T19:25:21.285Z,19.00
2018-09-12T19:27:53.856Z,19.20
2018-09-12T19:30:26.870Z,19.30
2018-09-12T19:32:59.010Z,19.40
2018-09-12T19:35:31.611Z,19.70
2018-09-12T19:38:04.178Z,19.90
2018-09-12T19:40:36.726Z,19.90
2018-09-12T19:43:09.237Z,19.80
2018-09-12T19:45:42.496Z,19.90
2018-09-12T19:48:14.702Z,19.80
2018-09-12T19:50:47.035Z,19.80
2018-09-12T19:53:19.181Z,19.60
2018-09-12T19:55:51.760Z,19.60
2018-09-12T19:58:24.179Z,19.70
2018-09-12T20:00:56.482Z,19.70
2018-09-12T20:03:29.116Z,19.60
2018-09-12T20:06:01.551Z,19.70
2018-09-12T20:08:33.902Z,19.60
2018-09-12T20:11:06.606Z,19.80
2018-09-12T20:13:39.196Z,19.80
2018-09-12T20:16:11.849Z,19.90
2018-09-12T20:18:44.193Z,20.00
2018-09-12T20:21:16.539Z,19.90
2018-09-12T20:23:49.557Z,20.10
2018-09-12T20:26:21.904Z,20.20
2018-09-12T20:28:54.441Z,20.30
2018-09-12T20:31:26.806Z,20.30
2018-09-12T20:33:59.390Z,20.20
2018-09-12T20:36:31.786Z,20.30
2018-09-12T20:39:04.820Z,20.50
2018-09-12T20:41:36.966Z,20.60
2018-09-12T20:44:09.086Z,20.80
2018-09-12T20:46:41.491Z,20.90
2018-09-12T20:49:13.621Z,21.10
2018-09-12T20:51:46.595Z,21.20
2018-09-12T20:54:18.789Z,21.20
2018-09-12T20:56:51.389Z,20.90
2018-09-12T20:59:23.551Z,21.00
2018-09-12T21:01:56.241Z,20.90
2018-09-12T21:04:28.444Z,21.00
2018-09-12T21:07:00.890Z,20.90
2018-09-12T21:09:34.337Z,20.80
2018-09-12T21:12:06.728Z,20.90
2018-09-12T21:14:39.301Z,21.10
2018-09-12T21:17:11.688Z,21.00
2018-09-12T21:19:44.224Z,21.10
2018-09-12T21:22:16.653Z,20.90
2018-09-12T21:24:48.845Z,20.90
2018-09-12T21:27:21.237Z,21.00
2018-09-12T21:29:53.373Z,21.00
2018-09-12T21:32:25.683Z,21.00
2018-09-12T21:34:58.822Z,20.90
2018-09-12T21:37:30.992Z,20.70
2018-09-12T21:40:03.794Z,20.60
2018-09-12T21:42:36.184Z,20.40
2018-09-12T21:45:08.609Z,20.30
2018-09-12T21:47:41.017Z,20.20
2018-09-12T21:50:13.234Z,20.10
2018-09-12T21:52:45.591Z,19.80
2018-09-12T21:55:18.119Z,19.70
2018-09-12T21:57:50.504Z,19.50
2018-09-12T22:00:22.903Z,19.30
2018-09-12T22:02:55.294Z,19.20
2018-09-12T22:05:27.446Z,18.70
2018-09-12T22:08:00.043Z,18.20
2018-09-12T22:10:32.236Z,18.00
2018-09-12T22:13:04.659Z,17.90
2018-09-12T22:15:36.844Z,17.80
2018-09-12T22:18:09.047Z,17.70
2018-09-12T22:20:41.539Z,17.70
2018-09-12T22:23:13.945Z,17.70
2018-09-12T22:25:46.140Z,17.60
2018-09-12T22:28:18.822Z,17.40
2018-09-12T22:30:51.264Z,17.50
2018-09-12T22:33:23.730Z,17.60
2018-09-12T22:35:56.297Z,17.40
2018-09-12T22:38:28.604Z,17.40
2018-09-12T22:41:00.817Z,17.00
2018-09-12T22:43:33.689Z,16.70
2018-09-12T22:46:06.086Z,16.40
2018-09-12T22:48:37.949Z,15.90
2018-09-12T22:51:09.908Z,15.60
2018-09-12T22:53:42.277Z,15.70
2018-09-12T22:56:15.966Z,15.60
2018-09-12T22:58:48.516Z,15.50
2018-09-12T23:01:21.140Z,15.40
2018-09-12T23:03:53.618Z,15.60
2018-09-12T23:06:26.406Z,15.60
2018-09-12T23:08:58.553Z,15.70
2018-09-12T23:11:30.395Z,15.80
2018-09-12T23:14:02.183Z,16.00
2018-09-12T23:16:34.636Z,16.40
2018-09-12T23:19:06.879Z,16.70
2018-09-12T23:21:39.005Z,17.00
2018-09-12T23:24:11.187Z,17.10
2018-09-12T23:26:43.874Z,17.30
2018-09-12T23:29:16.090Z,17.40
2018-09-12T23:31:48.106Z,17.50
2018-09-12T23:34:20.162Z,17.50
2018-09-12T23:36:53.030Z,17.30
2018-09-12T23:39:25.622Z,17.20
2018-09-12T23:41:58.115Z,17.20
2018-09-12T23:44:31.123Z,17.00
2018-09-12T23:47:03.695Z,16.70
2018-09-12T23:49:36.129Z,16.60
2018-09-12T23:52:08.864Z,16.50
2018-09-12T23:54:41.338Z,16.50
2018-09-12T23:57:13.408Z,16.30
2018-09-12T23:59:45.763Z,16.20
